Terminal Aerodrome Forecast
Issued by NWS

Home | Current Version | Previous Version | Text Only | Print | Product List | Glossary On
Versions: 1 2 3 4 5 6 7 8 9 10 11 12 13 14 15 16 17 18
000
FTUS43 KDTX 060533
TAFYIP
TAF
KYIP 060533Z 0606/0706 09004KT 4SM BR SCT015
     FM060800 07006KT 4SM BR BKN015
     FM061200 07008KT P6SM SCT015 OVC150
     FM061500 08011KT P6SM -SHRA SCT040 OVC100
     FM061800 08009KT 4SM -RA BR BKN018 OVC028
     FM062100 09006KT 2SM -RA BR OVC012
     FM070300 25015G23KT P6SM OVC015=

USA.gov is the U.S. government's official web portal to all federal, state and local government web resources and services.